createdAt,value
2023-02-11T00:00:31.359Z,57.01
2023-02-11T00:03:23.534Z,56.96
2023-02-11T00:06:04.901Z,57.04
2023-02-11T00:08:37.170Z,56.89
2023-02-11T00:11:13.524Z,56.99
2023-02-11T00:13:46.546Z,56.90
2023-02-11T00:16:21.244Z,57.13
2023-02-11T00:18:54.305Z,57.04
2023-02-11T00:21:27.981Z,57.20
2023-02-11T00:24:02.450Z,57.16
2023-02-11T00:26:36.774Z,57.22
2023-02-11T00:29:09.065Z,57.20
2023-02-11T00:31:41.590Z,57.14
2023-02-11T00:34:13.963Z,57.17
2023-02-11T00:36:46.162Z,57.09
2023-02-11T00:39:18.474Z,57.30
2023-02-11T00:41:51.008Z,57.30
2023-02-11T00:44:23.372Z,57.27
2023-02-11T00:46:55.619Z,57.21
2023-02-11T00:49:27.861Z,57.26
2023-02-11T00:52:00.183Z,57.34
2023-02-11T00:54:32.552Z,57.31
2023-02-11T00:57:04.880Z,57.40
2023-02-11T00:59:37.364Z,57.42
2023-02-11T01:02:09.951Z,57.47
2023-02-11T01:04:42.329Z,57.52
2023-02-11T01:07:14.517Z,57.45
2023-02-11T01:09:46.823Z,57.45
2023-02-11T01:12:19.408Z,57.45
2023-02-11T01:14:51.771Z,57.59
2023-02-11T01:17:24.175Z,57.64
2023-02-11T01:19:56.619Z,57.77
2023-02-11T01:22:28.977Z,57.61
2023-02-11T01:25:01.649Z,57.76
2023-02-11T01:27:34.058Z,57.64
2023-02-11T01:30:09.990Z,57.80
2023-02-11T01:32:41.011Z,57.72
2023-02-11T01:35:13.368Z,57.86
2023-02-11T01:37:45.603Z,57.77
2023-02-11T01:40:19.331Z,57.94
2023-02-11T01:42:51.586Z,57.81
2023-02-11T01:46:14.729Z,57.80
2023-02-11T01:48:50.471Z,58.03
2023-02-11T01:51:26.535Z,57.89
2023-02-11T01:54:32.953Z,57.91
2023-02-11T01:57:26.022Z,57.74
2023-02-11T02:00:15.735Z,57.72
2023-02-11T02:02:54.323Z,57.91
2023-02-11T02:05:33.827Z,58.11
2023-02-11T02:08:12.902Z,57.93
2023-02-11T02:10:47.927Z,57.83
2023-02-11T02:13:20.190Z,57.81
2023-02-11T02:15:54.609Z,57.83
2023-02-11T02:18:45.902Z,57.89
2023-02-11T02:21:42.409Z,57.86
2023-02-11T02:24:40.999Z,58.00
2023-02-11T02:27:31.192Z,57.91
2023-02-11T02:30:26.820Z,58.00
2023-02-11T02:33:28.753Z,57.88
2023-02-11T02:36:10.968Z,58.08
2023-02-11T02:38:49.907Z,58.22
2023-02-11T02:41:25.133Z,58.17
2023-02-11T02:43:57.516Z,58.33
2023-02-11T02:46:32.891Z,58.02
2023-02-11T02:49:07.876Z,58.24
2023-02-11T02:52:18.784Z,58.09
2023-02-11T02:55:08.860Z,58.22
2023-02-11T02:58:01.968Z,58.24
2023-02-11T03:00:40.212Z,58.18
2023-02-11T03:03:27.355Z,58.19
2023-02-11T03:06:05.155Z,57.87
2023-02-11T03:08:42.431Z,58.26
2023-02-11T03:11:17.720Z,58.08
2023-02-11T03:13:52.410Z,58.32
2023-02-11T03:16:29.754Z,58.30
2023-02-11T03:19:07.802Z,58.40
2023-02-11T03:21:43.859Z,58.42
2023-02-11T03:24:17.572Z,58.25
2023-02-11T03:26:54.004Z,58.36
2023-02-11T03:29:36.953Z,58.52
2023-02-11T03:32:18.838Z,58.60
2023-02-11T03:34:57.457Z,58.36
2023-02-11T03:37:34.300Z,58.59
2023-02-11T03:40:11.759Z,58.68
2023-02-11T03:42:49.437Z,58.58
2023-02-11T03:45:24.939Z,58.57
2023-02-11T03:48:01.136Z,58.44
2023-02-11T03:50:35.173Z,58.50
2023-02-11T03:53:09.210Z,58.71
2023-02-11T03:55:44.354Z,58.55
2023-02-11T03:58:16.761Z,58.66
2023-02-11T04:00:49.522Z,58.74
2023-02-11T04:03:21.897Z,58.68
2023-02-11T04:05:54.315Z,58.43
2023-02-11T04:08:26.665Z,58.36
2023-02-11T04:10:58.978Z,58.26
2023-02-11T04:13:31.629Z,58.28
2023-02-11T04:16:04.102Z,58.38
2023-02-11T04:18:36.410Z,58.45
2023-02-11T04:21:09.453Z,58.43
2023-02-11T04:23:41.665Z,58.28
2023-02-11T04:26:13.980Z,58.17
2023-02-11T04:28:46.234Z,58.56
2023-02-11T04:31:18.648Z,58.45
2023-02-11T04:33:51.304Z,58.83
2023-02-11T04:36:23.638Z,58.81
2023-02-11T04:38:56.007Z,58.78
2023-02-11T04:41:28.328Z,58.81
2023-02-11T04:44:00.749Z,58.94
2023-02-11T04:46:33.317Z,58.71
2023-02-11T04:49:06.016Z,59.02
2023-02-11T04:51:38.259Z,58.73
2023-02-11T04:54:10.742Z,58.77
2023-02-11T04:56:43.115Z,58.72
2023-02-11T04:59:15.834Z,58.97
2023-02-11T05:01:48.131Z,58.76
2023-02-11T05:04:20.694Z,58.60
2023-02-11T05:06:53.103Z,58.71
2023-02-11T05:09:25.474Z,59.00
2023-02-11T05:11:57.849Z,58.98
2023-02-11T05:14:30.298Z,58.89
2023-02-11T05:17:02.708Z,58.76
2023-02-11T05:19:35.356Z,58.74
2023-02-11T05:22:07.910Z,58.80
2023-02-11T05:24:40.254Z,58.56
2023-02-11T05:27:12.792Z,58.73
2023-02-11T05:29:45.250Z,58.98
2023-02-11T05:32:17.662Z,58.76
2023-02-11T05:34:50.101Z,58.64
2023-02-11T05:37:22.348Z,58.69
2023-02-11T05:39:54.699Z,58.41
2023-02-11T05:42:26.940Z,58.60
2023-02-11T05:44:59.244Z,58.66
2023-02-11T05:47:31.878Z,59.03
2023-02-11T05:50:04.314Z,58.97
2023-02-11T05:52:36.753Z,59.04
2023-02-11T05:55:09.944Z,58.99
2023-02-11T05:57:42.373Z,59.34
2023-02-11T06:00:17.438Z,59.18
2023-02-11T06:02:49.839Z,59.19
2023-02-11T06:05:22.605Z,59.33
2023-02-11T06:07:55.035Z,59.04
2023-02-11T06:10:27.389Z,59.02
2023-02-11T06:12:59.709Z,58.87
2023-02-11T06:15:31.982Z,58.93
2023-02-11T06:18:04.260Z,59.15
2023-02-11T06:20:36.502Z,59.09
2023-02-11T06:23:08.856Z,59.06
2023-02-11T06:25:41.509Z,58.82
2023-02-11T06:28:14.069Z,59.03
2023-02-11T06:30:46.549Z,58.52
2023-02-11T06:33:18.957Z,58.22
2023-02-11T06:35:51.502Z,58.53
2023-02-11T06:38:24.085Z,58.82
2023-02-11T06:40:56.473Z,58.77
2023-02-11T06:43:28.918Z,58.42
2023-02-11T06:46:01.254Z,58.87
2023-02-11T06:48:33.590Z,58.74
2023-02-11T06:51:09.984Z,58.62
2023-02-11T06:53:44.674Z,58.35
2023-02-11T06:56:19.562Z,57.82
2023-02-11T06:58:56.122Z,57.94
2023-02-11T07:01:29.586Z,57.33
2023-02-11T07:04:02.003Z,57.45
2023-02-11T07:06:34.423Z,57.66
2023-02-11T07:09:07.055Z,57.50
2023-02-11T07:11:40.602Z,57.35
2023-02-11T07:14:14.147Z,57.67
2023-02-11T07:16:46.554Z,57.67
2023-02-11T07:19:18.990Z,57.33
2023-02-11T07:21:51.324Z,57.61
2023-02-11T07:24:25.156Z,57.53
2023-02-11T07:26:57.606Z,56.98
2023-02-11T07:29:30.052Z,56.99
2023-02-11T07:32:02.424Z,57.08
2023-02-11T07:34:35.247Z,57.42
2023-02-11T07:37:07.604Z,57.09
2023-02-11T07:39:39.885Z,57.15
2023-02-11T07:42:12.252Z,57.04
2023-02-11T07:44:44.686Z,57.21
2023-02-11T07:47:16.928Z,57.03
2023-02-11T07:49:49.769Z,57.50
2023-02-11T07:52:22.373Z,57.44
2023-02-11T07:54:54.706Z,57.52
2023-02-11T07:57:27.112Z,56.79
2023-02-11T07:59:59.384Z,57.03
2023-02-11T08:02:31.826Z,57.10
2023-02-11T08:05:04.232Z,56.94
2023-02-11T08:07:37.061Z,57.31
2023-02-11T08:10:10.058Z,56.82
2023-02-11T08:12:42.339Z,56.97
2023-02-11T08:15:14.670Z,56.65
2023-02-11T08:17:47.073Z,56.55
2023-02-11T08:20:19.800Z,56.59
2023-02-11T08:22:52.101Z,56.17
2023-02-11T08:25:24.561Z,56.20
2023-02-11T08:27:56.928Z,56.29
2023-02-11T08:30:30.581Z,56.29
2023-02-11T08:33:03.035Z,56.39
2023-02-11T08:35:39.947Z,55.96
2023-02-11T08:38:12.224Z,55.84
2023-02-11T08:40:44.562Z,55.87
2023-02-11T08:43:17.146Z,55.57
2023-02-11T08:45:49.739Z,55.85
2023-02-11T08:48:22.298Z,55.51
2023-02-11T08:50:54.579Z,55.36
2023-02-11T08:53:26.993Z,55.15
2023-02-11T08:55:59.233Z,54.70
2023-02-11T08:58:31.720Z,55.03
2023-02-11T09:01:10.025Z,55.17
2023-02-11T09:03:42.634Z,55.19
2023-02-11T09:06:17.765Z,54.94
2023-02-11T09:08:53.388Z,54.70
2023-02-11T09:11:29.914Z,54.79
2023-02-11T09:14:03.070Z,54.62
2023-02-11T09:16:37.475Z,54.58
2023-02-11T09:19:11.015Z,54.84
2023-02-11T09:21:43.462Z,54.01
2023-02-11T09:24:16.029Z,53.99
2023-02-11T09:26:49.787Z,54.10
2023-02-11T09:29:22.212Z,53.10
2023-02-11T09:31:54.735Z,52.93
2023-02-11T09:34:27.183Z,53.43
2023-02-11T09:36:59.701Z,53.16
2023-02-11T09:39:32.285Z,53.41
2023-02-11T09:42:35.815Z,53.91
2023-02-11T09:45:15.993Z,53.41
2023-02-11T09:47:55.773Z,53.11
2023-02-11T09:50:33.967Z,53.34
2023-02-11T09:53:12.314Z,53.30
2023-02-11T09:55:47.861Z,52.82
2023-02-11T09:58:30.194Z,53.03
2023-02-11T10:01:09.897Z,52.55
2023-02-11T10:04:05.140Z,52.47
2023-02-11T10:06:44.441Z,53.21
2023-02-11T10:09:38.428Z,53.01
2023-02-11T10:12:29.337Z,52.70
2023-02-11T10:15:14.826Z,52.53
2023-02-11T10:18:01.041Z,52.47
2023-02-11T10:20:38.826Z,52.02
2023-02-11T10:23:17.945Z,52.06
2023-02-11T10:25:54.807Z,51.66
2023-02-11T10:28:34.028Z,51.94
2023-02-11T10:31:11.621Z,52.01
2023-02-11T10:33:48.417Z,51.53
2023-02-11T10:36:24.026Z,51.43
2023-02-11T10:38:56.447Z,51.49
2023-02-11T10:41:34.017Z,51.75
2023-02-11T10:44:09.200Z,51.24
2023-02-11T10:46:41.672Z,51.16
2023-02-11T10:49:39.495Z,51.19
2023-02-11T10:52:23.854Z,51.03
2023-02-11T10:55:05.916Z,51.18
2023-02-11T10:57:42.869Z,51.09
2023-02-11T11:00:32.552Z,50.93
2023-02-11T11:03:06.760Z,50.82
2023-02-11T11:05:48.424Z,50.70
2023-02-11T11:08:21.575Z,50.66
2023-02-11T11:11:06.104Z,50.63
2023-02-11T11:13:40.347Z,50.32
2023-02-11T11:16:24.722Z,50.21
2023-02-11T11:19:21.752Z,50.28
2023-02-11T11:21:56.385Z,49.96
2023-02-11T11:24:34.487Z,50.27
2023-02-11T11:27:07.541Z,50.00
2023-02-11T11:29:45.241Z,49.82
2023-02-11T11:32:22.330Z,49.26
2023-02-11T11:34:56.922Z,49.00
2023-02-11T11:37:31.872Z,48.89
2023-02-11T11:40:10.066Z,49.43
2023-02-11T11:42:43.141Z,49.24
2023-02-11T11:45:28.071Z,49.31
2023-02-11T11:48:04.608Z,49.01
2023-02-11T11:50:41.579Z,48.96
2023-02-11T11:53:22.013Z,49.01
2023-02-11T11:56:02.229Z,48.95
2023-02-11T11:58:35.351Z,48.97
2023-02-11T12:01:24.418Z,48.59
2023-02-11T12:04:36.853Z,48.85
2023-02-11T12:07:25.963Z,48.75
2023-02-11T12:10:29.442Z,48.83
2023-02-11T12:13:10.882Z,48.50
2023-02-11T12:15:52.505Z,48.96
2023-02-11T12:19:10.502Z,48.85
2023-02-11T12:21:50.899Z,49.23
2023-02-11T12:24:37.613Z,49.04
2023-02-11T12:27:16.144Z,49.17
2023-02-11T12:30:01.011Z,49.15
2023-02-11T12:32:40.433Z,49.18
2023-02-11T12:35:32.802Z,49.29
2023-02-11T12:38:30.327Z,49.23
2023-02-11T12:41:41.114Z,49.22
2023-02-11T12:44:24.816Z,49.21
2023-02-11T12:47:09.796Z,49.32
2023-02-11T12:50:09.192Z,49.07
2023-02-11T12:52:59.794Z,49.24
2023-02-11T12:55:37.852Z,49.24
2023-02-11T12:58:19.651Z,49.22
2023-02-11T13:00:56.827Z,49.36
2023-02-11T13:03:36.506Z,49.31
2023-02-11T13:06:13.459Z,49.31
2023-02-11T13:08:48.729Z,49.35
2023-02-11T13:11:25.416Z,49.47
2023-02-11T13:14:03.420Z,49.49
2023-02-11T13:16:41.691Z,49.46
2023-02-11T13:19:26.782Z,49.50
2023-02-11T13:22:15.014Z,49.59
2023-02-11T13:24:54.416Z,49.46
2023-02-11T13:27:38.267Z,49.39
2023-02-11T13:30:29.765Z,49.59
2023-02-11T13:33:34.212Z,49.58
2023-02-11T13:36:24.469Z,49.58
2023-02-11T13:39:08.259Z,49.64
2023-02-11T13:41:44.285Z,49.65
2023-02-11T13:44:26.349Z,49.48
2023-02-11T13:47:03.382Z,49.60
2023-02-11T13:49:42.467Z,49.52
2023-02-11T13:52:26.953Z,49.69
2023-02-11T13:55:06.121Z,49.68
2023-02-11T13:57:41.049Z,49.72
2023-02-11T14:00:50.777Z,49.60
2023-02-11T14:03:52.467Z,49.51
2023-02-11T14:06:47.580Z,49.59
2023-02-11T14:09:42.491Z,49.71
2023-02-11T14:12:31.434Z,49.72
2023-02-11T14:15:22.653Z,49.98
2023-02-11T14:17:55.022Z,49.78
2023-02-11T14:20:47.249Z,49.91
2023-02-11T14:23:28.654Z,49.96
2023-02-11T14:26:19.914Z,49.87
2023-02-11T14:28:59.367Z,49.87
2023-02-11T14:31:41.484Z,49.92
2023-02-11T14:34:34.640Z,49.99
2023-02-11T14:37:19.490Z,49.91
2023-02-11T14:40:04.234Z,49.87
2023-02-11T14:42:39.306Z,49.90
2023-02-11T14:45:19.850Z,50.00
2023-02-11T14:47:58.323Z,50.01
2023-02-11T14:50:34.927Z,49.98
2023-02-11T14:53:09.243Z,50.01
2023-02-11T14:55:46.119Z,49.92
2023-02-11T14:58:21.099Z,49.93
2023-02-11T15:00:58.887Z,49.94
2023-02-11T15:03:37.080Z,49.99
2023-02-11T15:06:18.483Z,49.89
2023-02-11T15:08:54.610Z,49.98
2023-02-11T15:11:26.604Z,50.00
2023-02-11T15:14:02.521Z,50.03
2023-02-11T15:16:34.377Z,50.04
2023-02-11T15:19:08.793Z,50.19
2023-02-11T15:21:41.248Z,50.18
2023-02-11T15:24:27.356Z,50.20
2023-02-11T15:27:01.795Z,50.26
2023-02-11T15:29:40.881Z,50.22
2023-02-11T15:32:19.389Z,50.27
2023-02-11T15:34:54.161Z,50.24
2023-02-11T15:37:29.868Z,50.30
2023-02-11T15:40:19.029Z,50.19
2023-02-11T15:42:59.298Z,50.32
2023-02-11T15:45:35.153Z,50.37
2023-02-11T15:48:14.958Z,50.34
2023-02-11T15:50:54.214Z,50.28
2023-02-11T15:53:32.695Z,50.36
2023-02-11T15:56:12.253Z,50.42
2023-02-11T15:58:48.954Z,50.31
2023-02-11T16:01:31.778Z,50.44
2023-02-11T16:04:07.338Z,50.48
2023-02-11T16:06:41.857Z,50.54
2023-02-11T16:09:32.854Z,50.51
2023-02-11T16:12:20.041Z,50.81
2023-02-11T16:14:52.580Z,50.41
2023-02-11T16:17:28.886Z,50.69
2023-02-11T16:19:59.541Z,50.72
2023-02-11T16:22:38.222Z,50.75
2023-02-11T16:25:20.344Z,50.80
2023-02-11T16:27:54.926Z,50.85
2023-02-11T16:30:33.973Z,50.92
2023-02-11T16:33:06.869Z,50.85
2023-02-11T16:35:39.326Z,51.08
2023-02-11T16:38:11.744Z,50.94
2023-02-11T16:40:46.260Z,51.14
2023-02-11T16:43:21.322Z,50.94
2023-02-11T16:45:53.819Z,51.25
2023-02-11T16:48:26.590Z,51.17
2023-02-11T16:50:59.202Z,51.29
2023-02-11T16:53:31.728Z,51.32
2023-02-11T16:56:04.431Z,51.35
2023-02-11T16:58:36.671Z,51.62
2023-02-11T17:01:11.033Z,51.45
2023-02-11T17:03:45.734Z,51.41
2023-02-11T17:06:18.131Z,51.39
2023-02-11T17:08:50.345Z,51.74
2023-02-11T17:11:22.810Z,51.74
2023-02-11T17:13:55.203Z,51.80
2023-02-11T17:16:29.985Z,52.08
2023-02-11T17:19:02.542Z,52.01
2023-02-11T17:21:34.889Z,51.94
2023-02-11T17:24:07.823Z,51.78
2023-02-11T17:26:40.475Z,52.14
2023-02-11T17:29:15.773Z,52.26
2023-02-11T17:31:48.113Z,52.15
2023-02-11T17:34:21.049Z,52.48
2023-02-11T17:36:53.442Z,52.82
2023-02-11T17:39:26.080Z,52.76
2023-02-11T17:41:58.538Z,52.80
2023-02-11T17:44:30.838Z,52.49
2023-02-11T17:47:03.301Z,52.64
2023-02-11T17:49:35.675Z,53.05
2023-02-11T17:52:08.244Z,52.85
2023-02-11T17:54:40.865Z,52.70
2023-02-11T17:57:13.455Z,53.28
2023-02-11T17:59:45.972Z,53.14
2023-02-11T18:02:18.400Z,53.39
2023-02-11T18:04:52.469Z,53.33
2023-02-11T18:07:24.730Z,53.24
2023-02-11T18:09:57.081Z,53.06
2023-02-11T18:12:29.495Z,53.30
2023-02-11T18:15:01.860Z,53.50
2023-02-11T18:17:34.213Z,53.48
2023-02-11T18:20:08.116Z,53.86
2023-02-11T18:22:41.202Z,53.58
2023-02-11T18:25:15.188Z,54.02
2023-02-11T18:27:47.834Z,54.06
2023-02-11T18:30:22.425Z,53.71
2023-02-11T18:32:57.603Z,53.86
2023-02-11T18:35:29.967Z,53.87
2023-02-11T18:38:02.455Z,54.45
2023-02-11T18:40:35.617Z,54.09
2023-02-11T18:43:07.952Z,54.18
2023-02-11T18:45:43.492Z,53.86
2023-02-11T18:48:16.962Z,53.75
2023-02-11T18:50:49.564Z,54.23
2023-02-11T18:53:22.349Z,54.20
2023-02-11T18:55:55.516Z,54.25
2023-02-11T18:58:28.139Z,54.07
2023-02-11T19:01:00.425Z,54.03
2023-02-11T19:03:32.759Z,54.13
2023-02-11T19:06:09.472Z,54.29
2023-02-11T19:08:41.740Z,54.21
2023-02-11T19:11:17.980Z,54.53
2023-02-11T19:13:51.491Z,54.55
2023-02-11T19:16:24.079Z,54.66
2023-02-11T19:18:58.079Z,54.48
2023-02-11T19:21:30.847Z,54.17
2023-02-11T19:24:07.674Z,54.12
2023-02-11T19:26:43.183Z,54.01
2023-02-11T19:29:15.880Z,54.30
2023-02-11T19:31:48.315Z,54.31
2023-02-11T19:34:22.478Z,54.19
2023-02-11T19:36:55.412Z,54.32
2023-02-11T19:39:27.840Z,54.12
2023-02-11T19:42:00.094Z,54.54
2023-02-11T19:44:32.372Z,54.49
2023-02-11T19:47:04.628Z,54.40
2023-02-11T19:49:37.034Z,54.32
2023-02-11T19:52:09.759Z,54.56
2023-02-11T19:54:42.069Z,54.52
2023-02-11T19:57:14.371Z,54.38
2023-02-11T19:59:46.704Z,54.39
2023-02-11T20:02:19.026Z,54.53
2023-02-11T20:04:51.624Z,54.80
2023-02-11T20:07:23.958Z,54.65
2023-02-11T20:09:56.193Z,54.64
2023-02-11T20:12:28.421Z,54.76
2023-02-11T20:15:00.779Z,54.58
2023-02-11T20:17:33.250Z,54.76
2023-02-11T20:20:05.778Z,54.77
2023-02-11T20:22:38.471Z,55.02
2023-02-11T20:25:14.153Z,54.93
2023-02-11T20:27:46.667Z,55.05
2023-02-11T20:30:19.581Z,55.00
2023-02-11T20:32:51.942Z,55.32
2023-02-11T20:35:24.219Z,55.04
2023-02-11T20:37:56.655Z,55.28
2023-02-11T20:40:28.839Z,55.15
2023-02-11T20:43:01.249Z,55.45
2023-02-11T20:45:36.228Z,55.61
2023-02-11T20:48:08.831Z,55.27
2023-02-11T20:50:41.593Z,55.17
2023-02-11T20:53:14.046Z,55.40
2023-02-11T20:55:46.350Z,55.65
2023-02-11T20:58:18.625Z,55.37
2023-02-11T21:00:50.854Z,55.13
2023-02-11T21:03:23.390Z,55.28
2023-02-11T21:06:00.853Z,55.34
2023-02-11T21:08:33.467Z,55.10
2023-02-11T21:11:09.490Z,55.11
2023-02-11T21:13:43.297Z,55.30
2023-02-11T21:16:18.410Z,55.50
2023-02-11T21:18:51.533Z,55.19
2023-02-11T21:21:24.387Z,55.49
2023-02-11T21:23:56.948Z,55.62
2023-02-11T21:26:29.510Z,55.60
2023-02-11T21:29:01.830Z,55.51
2023-02-11T21:31:36.698Z,55.57
2023-02-11T21:34:09.549Z,55.78
2023-02-11T21:36:41.904Z,55.86
2023-02-11T21:39:15.371Z,55.80
2023-02-11T21:41:47.761Z,55.67
2023-02-11T21:44:20.433Z,55.68
2023-02-11T21:46:52.839Z,55.73
2023-02-11T21:49:25.167Z,55.60
2023-02-11T21:51:57.493Z,55.74
2023-02-11T21:54:32.127Z,55.74
2023-02-11T21:57:04.420Z,55.84
2023-02-11T21:59:36.907Z,56.04
2023-02-11T22:02:10.253Z,55.60
2023-02-11T22:04:42.635Z,56.05
2023-02-11T22:07:15.028Z,56.36
2023-02-11T22:09:47.679Z,56.41
2023-02-11T22:12:20.206Z,56.02
2023-02-11T22:14:52.476Z,56.01
2023-02-11T22:17:24.952Z,55.79
2023-02-11T22:19:57.742Z,55.82
2023-02-11T22:22:30.289Z,56.08
2023-02-11T22:25:03.458Z,56.44
2023-02-11T22:27:35.700Z,56.16
2023-02-11T22:30:10.103Z,56.17
2023-02-11T22:32:42.653Z,56.26
2023-02-11T22:35:14.980Z,56.62
2023-02-11T22:37:47.199Z,56.40
2023-02-11T22:40:19.741Z,56.47
2023-02-11T22:42:52.057Z,56.43
2023-02-11T22:45:24.600Z,56.49
2023-02-11T22:47:56.922Z,56.34
2023-02-11T22:50:29.346Z,56.82
2023-02-11T22:53:01.635Z,56.45
2023-02-11T22:55:37.191Z,56.74
2023-02-11T22:58:09.581Z,56.77
2023-02-11T23:00:43.473Z,56.48
2023-02-11T23:03:15.819Z,56.87
2023-02-11T23:05:48.113Z,56.49
2023-02-11T23:08:20.550Z,56.97
2023-02-11T23:10:52.963Z,57.08
2023-02-11T23:13:25.159Z,56.94
2023-02-11T23:15:57.630Z,56.92
2023-02-11T23:18:30.324Z,57.33
2023-02-11T23:21:11.310Z,56.98
2023-02-11T23:23:45.094Z,57.27
2023-02-11T23:26:19.619Z,57.38
2023-02-11T23:28:52.152Z,57.27
2023-02-11T23:31:26.231Z,57.23
2023-02-11T23:33:59.003Z,56.95
2023-02-11T23:36:31.508Z,57.60
2023-02-11T23:39:04.168Z,57.15
2023-02-11T23:41:36.497Z,57.21
2023-02-11T23:44:08.881Z,57.36
2023-02-11T23:46:41.358Z,56.93
2023-02-11T23:49:15.625Z,57.10
2023-02-11T23:51:48.070Z,57.33
2023-02-11T23:54:20.467Z,57.29
2023-02-11T23:56:52.786Z,57.53
2023-02-11T23:59:25.091Z,57.51
